Terminal Aerodrome Forecast
Issued by NWS

Home | Current Version | Previous Version | Text Only | Print | Product List | Glossary On
Versions: 1 2 3 4 5 6 7 8 9 10 11 12 13
000
FTUS45 KVEF 302320
TAFBIH
TAF
KBIH 302320Z 3100/3124 17012G20KT P6SM VCTS SCT120CB BKN200
      TEMPO 3100/3102 VRB20G30KT -TSRA BKN100CB
     FM310300 15010KT P6SM FEW120 BKN200
     FM310800 32006KT P6SM FEW120 BKN200
     FM311900 17012G20KT P6SM VCTS SCT100CB BKN200=

USA.gov is the U.S. government's official web portal to all federal, state and local government web resources and services.